sensor_id;sensor_type;location;lat;lon;timestamp;temperature;humidity
66102;HTU21D;52883;51.094;5.880;2023-12-14T00:02:02;8.05;118.99
66102;HTU21D;52883;51.094;5.880;2023-12-14T00:04:28;8.07;118.99
66102;HTU21D;52883;51.094;5.880;2023-12-14T00:06:54;8.09;118.99
66102;HTU21D;52883;51.094;5.880;2023-12-14T00:09:19;8.09;118.99
66102;HTU21D;52883;51.094;5.880;2023-12-14T00:11:45;8.13;118.99
66102;HTU21D;52883;51.094;5.880;2023-12-14T00:14:10;8.14;118.99
66102;HTU21D;52883;51.094;5.880;2023-12-14T00:16:36;8.14;118.99
66102;HTU21D;52883;51.094;5.880;2023-12-14T00:19:01;8.15;118.99
66102;HTU21D;52883;51.094;5.880;2023-12-14T00:21:27;8.14;118.99
66102;HTU21D;52883;51.094;5.880;2023-12-14T00:23:53;8.15;118.99
66102;HTU21D;52883;51.094;5.880;2023-12-14T00:26:19;8.14;118.99
66102;HTU21D;52883;51.094;5.880;2023-12-14T00:28:45;8.13;118.99
66102;HTU21D;52883;51.094;5.880;2023-12-14T00:31:10;8.15;118.99
66102;HTU21D;52883;51.094;5.880;2023-12-14T00:33:36;8.17;118.99
66102;HTU21D;52883;51.094;5.880;2023-12-14T00:36:01;8.19;118.99
66102;HTU21D;52883;51.094;5.880;2023-12-14T00:38:27;8.20;118.99
66102;HTU21D;52883;51.094;5.880;2023-12-14T00:40:52;8.21;118.99
66102;HTU21D;52883;51.094;5.880;2023-12-14T00:43:18;8.21;118.99
66102;HTU21D;52883;51.094;5.880;2023-12-14T00:45:44;8.22;118.99
66102;HTU21D;52883;51.094;5.880;2023-12-14T00:48:09;8.21;118.99
66102;HTU21D;52883;51.094;5.880;2023-12-14T00:50:35;8.20;118.99
66102;HTU21D;52883;51.094;5.880;2023-12-14T00:53:00;8.18;118.99
66102;HTU21D;52883;51.094;5.880;2023-12-14T00:55:26;8.14;118.99
66102;HTU21D;52883;51.094;5.880;2023-12-14T00:57:51;8.09;118.99
66102;HTU21D;52883;51.094;5.880;2023-12-14T01:00:18;8.04;118.99
66102;HTU21D;52883;51.094;5.880;2023-12-14T01:02:43;7.99;118.99
66102;HTU21D;52883;51.094;5.880;2023-12-14T01:05:09;7.92;118.99
66102;HTU21D;52883;51.094;5.880;2023-12-14T01:07:35;7.87;118.99
66102;HTU21D;52883;51.094;5.880;2023-12-14T01:10:00;7.78;118.99
66102;HTU21D;52883;51.094;5.880;2023-12-14T01:12:26;7.74;118.99
66102;HTU21D;52883;51.094;5.880;2023-12-14T01:14:51;7.72;118.99
66102;HTU21D;52883;51.094;5.880;2023-12-14T01:17:17;7.70;118.99
66102;HTU21D;52883;51.094;5.880;2023-12-14T01:19:43;7.69;118.99
66102;HTU21D;52883;51.094;5.880;2023-12-14T01:22:09;7.67;118.99
66102;HTU21D;52883;51.094;5.880;2023-12-14T01:24:34;7.69;118.99
66102;HTU21D;52883;51.094;5.880;2023-12-14T01:27:00;7.70;118.99
66102;HTU21D;52883;51.094;5.880;2023-12-14T01:29:25;7.71;118.99
66102;HTU21D;52883;51.094;5.880;2023-12-14T01:31:51;7.68;118.99
66102;HTU21D;52883;51.094;5.880;2023-12-14T01:34:16;7.69;118.99
66102;HTU21D;52883;51.094;5.880;2023-12-14T01:36:42;7.68;118.99
66102;HTU21D;52883;51.094;5.880;2023-12-14T01:39:08;7.67;118.99
66102;HTU21D;52883;51.094;5.880;2023-12-14T01:41:33;7.63;118.99
66102;HTU21D;52883;51.094;5.880;2023-12-14T01:44:00;7.57;118.99
66102;HTU21D;52883;51.094;5.880;2023-12-14T01:46:25;7.55;118.99
66102;HTU21D;52883;51.094;5.880;2023-12-14T01:48:51;7.52;118.99
66102;HTU21D;52883;51.094;5.880;2023-12-14T01:51:19;7.48;118.99
66102;HTU21D;52883;51.094;5.880;2023-12-14T01:53:44;7.48;118.99
66102;HTU21D;52883;51.094;5.880;2023-12-14T01:56:10;7.48;118.99
66102;HTU21D;52883;51.094;5.880;2023-12-14T01:58:35;7.44;118.99
66102;HTU21D;52883;51.094;5.880;2023-12-14T02:03:51;7.37;118.99
66102;HTU21D;52883;51.094;5.880;2023-12-14T02:06:17;7.35;118.99
66102;HTU21D;52883;51.094;5.880;2023-12-14T02:08:43;7.31;118.99
66102;HTU21D;52883;51.094;5.880;2023-12-14T02:11:09;7.24;118.99
66102;HTU21D;52883;51.094;5.880;2023-12-14T02:13:34;7.22;118.99
66102;HTU21D;52883;51.094;5.880;2023-12-14T02:16:00;7.20;118.99
66102;HTU21D;52883;51.094;5.880;2023-12-14T02:18:25;7.22;118.99
66102;HTU21D;52883;51.094;5.880;2023-12-14T02:20:52;7.22;118.99
66102;HTU21D;52883;51.094;5.880;2023-12-14T02:23:17;7.18;118.99
66102;HTU21D;52883;51.094;5.880;2023-12-14T02:25:43;7.17;118.99
66102;HTU21D;52883;51.094;5.880;2023-12-14T02:28:09;7.17;118.99
66102;HTU21D;52883;51.094;5.880;2023-12-14T02:30:35;7.13;118.99
66102;HTU21D;52883;51.094;5.880;2023-12-14T02:33:00;7.07;118.99
66102;HTU21D;52883;51.094;5.880;2023-12-14T02:35:26;6.98;118.99
66102;HTU21D;52883;51.094;5.880;2023-12-14T02:37:52;6.97;118.99
66102;HTU21D;52883;51.094;5.880;2023-12-14T02:40:17;6.96;118.99
66102;HTU21D;52883;51.094;5.880;2023-12-14T02:42:43;6.96;118.99
66102;HTU21D;52883;51.094;5.880;2023-12-14T02:45:09;6.94;118.99
66102;HTU21D;52883;51.094;5.880;2023-12-14T02:47:34;6.91;118.99
66102;HTU21D;52883;51.094;5.880;2023-12-14T02:50:00;6.87;118.99
66102;HTU21D;52883;51.094;5.880;2023-12-14T02:52:26;6.87;118.99
66102;HTU21D;52883;51.094;5.880;2023-12-14T02:54:51;6.89;118.99
66102;HTU21D;52883;51.094;5.880;2023-12-14T02:57:17;6.93;118.99
66102;HTU21D;52883;51.094;5.880;2023-12-14T02:59:43;6.91;118.99
66102;HTU21D;52883;51.094;5.880;2023-12-14T03:02:09;6.90;118.99
66102;HTU21D;52883;51.094;5.880;2023-12-14T03:04:37;6.91;118.99
66102;HTU21D;52883;51.094;5.880;2023-12-14T03:07:04;6.89;118.99
66102;HTU21D;52883;51.094;5.880;2023-12-14T03:09:29;6.90;118.99
66102;HTU21D;52883;51.094;5.880;2023-12-14T03:11:55;6.84;118.99
66102;HTU21D;52883;51.094;5.880;2023-12-14T03:14:21;6.83;118.99
66102;HTU21D;52883;51.094;5.880;2023-12-14T03:16:47;6.80;118.99
66102;HTU21D;52883;51.094;5.880;2023-12-14T03:19:15;6.76;118.99
66102;HTU21D;52883;51.094;5.880;2023-12-14T03:21:41;6.79;118.99
66102;HTU21D;52883;51.094;5.880;2023-12-14T03:24:07;6.81;118.99
66102;HTU21D;52883;51.094;5.880;2023-12-14T03:26:33;6.78;118.99
66102;HTU21D;52883;51.094;5.880;2023-12-14T03:28:58;6.75;118.99
66102;HTU21D;52883;51.094;5.880;2023-12-14T03:31:24;6.75;118.99
66102;HTU21D;52883;51.094;5.880;2023-12-14T03:33:49;6.71;118.99
66102;HTU21D;52883;51.094;5.880;2023-12-14T03:36:15;6.65;118.99
66102;HTU21D;52883;51.094;5.880;2023-12-14T03:38:41;6.63;118.99
66102;HTU21D;52883;51.094;5.880;2023-12-14T03:41:06;6.61;118.99
66102;HTU21D;52883;51.094;5.880;2023-12-14T03:43:32;6.63;118.99
66102;HTU21D;52883;51.094;5.880;2023-12-14T03:45:58;6.65;118.99
66102;HTU21D;52883;51.094;5.880;2023-12-14T03:48:23;6.68;118.99
66102;HTU21D;52883;51.094;5.880;2023-12-14T03:50:49;6.69;118.99
66102;HTU21D;52883;51.094;5.880;2023-12-14T03:53:14;6.67;118.99
66102;HTU21D;52883;51.094;5.880;2023-12-14T03:55:40;6.63;118.99
66102;HTU21D;52883;51.094;5.880;2023-12-14T03:58:05;6.63;118.99
66102;HTU21D;52883;51.094;5.880;2023-12-14T04:00:32;6.61;118.99
66102;HTU21D;52883;51.094;5.880;2023-12-14T04:02:57;6.60;118.99
66102;HTU21D;52883;51.094;5.880;2023-12-14T04:05:23;6.56;118.99
66102;HTU21D;52883;51.094;5.880;2023-12-14T04:07:49;6.56;118.99
66102;HTU21D;52883;51.094;5.880;2023-12-14T04:10:14;6.52;118.99
66102;HTU21D;52883;51.094;5.880;2023-12-14T04:12:41;6.51;118.99
66102;HTU21D;52883;51.094;5.880;2023-12-14T04:15:09;6.54;118.99
66102;HTU21D;52883;51.094;5.880;2023-12-14T04:17:35;6.55;118.99
66102;HTU21D;52883;51.094;5.880;2023-12-14T04:20:01;6.55;118.99
66102;HTU21D;52883;51.094;5.880;2023-12-14T04:22:28;6.54;118.99
66102;HTU21D;52883;51.094;5.880;2023-12-14T04:24:54;6.55;118.99
66102;HTU21D;52883;51.094;5.880;2023-12-14T04:27:20;6.55;118.99
66102;HTU21D;52883;51.094;5.880;2023-12-14T04:29:46;6.51;118.99
66102;HTU21D;52883;51.094;5.880;2023-12-14T04:32:11;6.50;118.99
66102;HTU21D;52883;51.094;5.880;2023-12-14T04:34:37;6.45;118.99
66102;HTU21D;52883;51.094;5.880;2023-12-14T04:37:03;6.43;118.99
66102;HTU21D;52883;51.094;5.880;2023-12-14T04:39:29;6.41;118.99
66102;HTU21D;52883;51.094;5.880;2023-12-14T04:41:55;6.39;118.99
66102;HTU21D;52883;51.094;5.880;2023-12-14T04:44:21;6.42;118.99
66102;HTU21D;52883;51.094;5.880;2023-12-14T04:46:48;6.43;118.99
66102;HTU21D;52883;51.094;5.880;2023-12-14T04:49:14;6.42;118.99
66102;HTU21D;52883;51.094;5.880;2023-12-14T04:51:39;6.39;118.99
66102;HTU21D;52883;51.094;5.880;2023-12-14T04:54:05;6.34;118.99
66102;HTU21D;52883;51.094;5.880;2023-12-14T04:56:31;6.31;118.99
66102;HTU21D;52883;51.094;5.880;2023-12-14T04:58:57;6.27;118.99
66102;HTU21D;52883;51.094;5.880;2023-12-14T05:01:24;6.25;118.99
66102;HTU21D;52883;51.094;5.880;2023-12-14T05:03:55;6.26;118.99
66102;HTU21D;52883;51.094;5.880;2023-12-14T05:06:21;6.27;118.99
66102;HTU21D;52883;51.094;5.880;2023-12-14T05:08:46;6.27;118.99
66102;HTU21D;52883;51.094;5.880;2023-12-14T05:11:13;6.26;118.99
66102;HTU21D;52883;51.094;5.880;2023-12-14T05:13:39;6.24;118.99
66102;HTU21D;52883;51.094;5.880;2023-12-14T05:16:05;6.24;118.99
66102;HTU21D;52883;51.094;5.880;2023-12-14T05:18:31;6.21;118.99
66102;HTU21D;52883;51.094;5.880;2023-12-14T05:20:57;6.21;118.99
66102;HTU21D;52883;51.094;5.880;2023-12-14T05:23:23;6.19;118.99
66102;HTU21D;52883;51.094;5.880;2023-12-14T05:25:50;6.19;118.99
66102;HTU21D;52883;51.094;5.880;2023-12-14T05:28:15;6.17;118.99
66102;HTU21D;52883;51.094;5.880;2023-12-14T05:30:41;6.11;118.99
66102;HTU21D;52883;51.094;5.880;2023-12-14T05:33:07;6.12;118.99
66102;HTU21D;52883;51.094;5.880;2023-12-14T05:35:33;6.14;118.99
66102;HTU21D;52883;51.094;5.880;2023-12-14T05:37:58;6.14;118.99
66102;HTU21D;52883;51.094;5.880;2023-12-14T05:40:24;6.16;118.99
66102;HTU21D;52883;51.094;5.880;2023-12-14T05:42:51;6.14;118.99
66102;HTU21D;52883;51.094;5.880;2023-12-14T05:45:17;6.13;118.99
66102;HTU21D;52883;51.094;5.880;2023-12-14T05:47:44;6.10;118.99
66102;HTU21D;52883;51.094;5.880;2023-12-14T05:50:10;6.10;118.99
66102;HTU21D;52883;51.094;5.880;2023-12-14T05:52:36;6.08;118.99
66102;HTU21D;52883;51.094;5.880;2023-12-14T05:55:02;6.10;118.99
66102;HTU21D;52883;51.094;5.880;2023-12-14T05:57:28;6.11;118.99
66102;HTU21D;52883;51.094;5.880;2023-12-14T05:59:53;6.10;118.99
66102;HTU21D;52883;51.094;5.880;2023-12-14T06:02:19;6.12;118.99
66102;HTU21D;52883;51.094;5.880;2023-12-14T06:04:44;6.12;118.99
66102;HTU21D;52883;51.094;5.880;2023-12-14T06:07:10;6.08;118.99
66102;HTU21D;52883;51.094;5.880;2023-12-14T06:09:36;6.05;118.99
66102;HTU21D;52883;51.094;5.880;2023-12-14T06:12:03;6.07;118.99
66102;HTU21D;52883;51.094;5.880;2023-12-14T06:14:29;6.07;118.99
66102;HTU21D;52883;51.094;5.880;2023-12-14T06:16:55;6.11;118.99
66102;HTU21D;52883;51.094;5.880;2023-12-14T06:19:21;6.10;118.99
66102;HTU21D;52883;51.094;5.880;2023-12-14T06:21:47;6.09;118.99
66102;HTU21D;52883;51.094;5.880;2023-12-14T06:24:13;6.04;118.99
66102;HTU21D;52883;51.094;5.880;2023-12-14T06:26:43;5.99;118.99
66102;HTU21D;52883;51.094;5.880;2023-12-14T06:29:10;5.99;118.99
66102;HTU21D;52883;51.094;5.880;2023-12-14T06:31:36;5.98;118.99
66102;HTU21D;52883;51.094;5.880;2023-12-14T06:34:02;6.01;118.99
66102;HTU21D;52883;51.094;5.880;2023-12-14T06:36:32;6.00;118.99
66102;HTU21D;52883;51.094;5.880;2023-12-14T06:38:59;5.97;118.99
66102;HTU21D;52883;51.094;5.880;2023-12-14T06:41:27;5.97;118.99
66102;HTU21D;52883;51.094;5.880;2023-12-14T06:43:54;5.95;118.99
66102;HTU21D;52883;51.094;5.880;2023-12-14T06:46:20;5.96;118.99
66102;HTU21D;52883;51.094;5.880;2023-12-14T06:48:47;5.98;118.99
66102;HTU21D;52883;51.094;5.880;2023-12-14T06:51:13;5.98;118.99
66102;HTU21D;52883;51.094;5.880;2023-12-14T06:53:42;5.96;118.99
66102;HTU21D;52883;51.094;5.880;2023-12-14T06:56:09;5.96;118.99
66102;HTU21D;52883;51.094;5.880;2023-12-14T06:58:43;5.92;118.99
66102;HTU21D;52883;51.094;5.880;2023-12-14T07:01:13;5.90;118.99
66102;HTU21D;52883;51.094;5.880;2023-12-14T07:03:44;5.84;118.99
66102;HTU21D;52883;51.094;5.880;2023-12-14T07:06:17;5.82;118.99
66102;HTU21D;52883;51.094;5.880;2023-12-14T07:08:43;5.81;118.99
66102;HTU21D;52883;51.094;5.880;2023-12-14T07:11:09;5.79;118.99
66102;HTU21D;52883;51.094;5.880;2023-12-14T07:13:35;5.78;118.99
66102;HTU21D;52883;51.094;5.880;2023-12-14T07:16:06;5.77;118.99
66102;HTU21D;52883;51.094;5.880;2023-12-14T07:18:31;5.79;118.99
66102;HTU21D;52883;51.094;5.880;2023-12-14T07:20:57;5.80;118.99
66102;HTU21D;52883;51.094;5.880;2023-12-14T07:23:22;5.80;118.99
66102;HTU21D;52883;51.094;5.880;2023-12-14T07:25:48;5.83;118.99
66102;HTU21D;52883;51.094;5.880;2023-12-14T07:28:14;5.83;118.99
66102;HTU21D;52883;51.094;5.880;2023-12-14T07:30:39;5.81;118.99
66102;HTU21D;52883;51.094;5.880;2023-12-14T07:33:05;5.80;118.99
66102;HTU21D;52883;51.094;5.880;2023-12-14T07:35:30;5.79;118.99
66102;HTU21D;52883;51.094;5.880;2023-12-14T07:37:56;5.76;118.99
66102;HTU21D;52883;51.094;5.880;2023-12-14T07:40:21;5.78;118.99
66102;HTU21D;52883;51.094;5.880;2023-12-14T07:42:47;5.77;118.99
66102;HTU21D;52883;51.094;5.880;2023-12-14T07:45:12;5.75;118.99
66102;HTU21D;52883;51.094;5.880;2023-12-14T07:47:38;5.75;118.99
66102;HTU21D;52883;51.094;5.880;2023-12-14T07:50:04;5.71;118.99
66102;HTU21D;52883;51.094;5.880;2023-12-14T07:52:30;5.70;118.99
66102;HTU21D;52883;51.094;5.880;2023-12-14T07:54:55;5.71;118.99
66102;HTU21D;52883;51.094;5.880;2023-12-14T07:57:21;5.72;118.99
66102;HTU21D;52883;51.094;5.880;2023-12-14T07:59:46;5.71;118.99
66102;HTU21D;52883;51.094;5.880;2023-12-14T08:02:12;5.67;118.99
66102;HTU21D;52883;51.094;5.880;2023-12-14T08:04:38;5.65;118.99
66102;HTU21D;52883;51.094;5.880;2023-12-14T08:07:03;5.65;118.99
66102;HTU21D;52883;51.094;5.880;2023-12-14T08:09:29;5.67;118.99
66102;HTU21D;52883;51.094;5.880;2023-12-14T08:11:54;5.70;118.99
66102;HTU21D;52883;51.094;5.880;2023-12-14T08:14:20;5.70;118.99
66102;HTU21D;52883;51.094;5.880;2023-12-14T08:16:45;5.69;118.99
66102;HTU21D;52883;51.094;5.880;2023-12-14T08:19:11;5.71;118.99
66102;HTU21D;52883;51.094;5.880;2023-12-14T08:21:36;5.66;118.99
66102;HTU21D;52883;51.094;5.880;2023-12-14T08:24:02;5.66;118.99
66102;HTU21D;52883;51.094;5.880;2023-12-14T08:26:28;5.62;118.99
66102;HTU21D;52883;51.094;5.880;2023-12-14T08:28:53;5.59;118.99
66102;HTU21D;52883;51.094;5.880;2023-12-14T08:31:19;5.61;118.99
66102;HTU21D;52883;51.094;5.880;2023-12-14T08:33:44;5.56;118.99
66102;HTU21D;52883;51.094;5.880;2023-12-14T08:36:10;5.59;118.99
66102;HTU21D;52883;51.094;5.880;2023-12-14T08:38:36;5.60;118.99
66102;HTU21D;52883;51.094;5.880;2023-12-14T08:41:01;5.62;118.99
66102;HTU21D;52883;51.094;5.880;2023-12-14T08:43:27;5.62;118.99
66102;HTU21D;52883;51.094;5.880;2023-12-14T08:45:52;5.64;118.99
66102;HTU21D;52883;51.094;5.880;2023-12-14T08:48:18;5.61;118.99
66102;HTU21D;52883;51.094;5.880;2023-12-14T08:50:44;5.61;118.99
66102;HTU21D;52883;51.094;5.880;2023-12-14T08:53:10;5.66;118.99
66102;HTU21D;52883;51.094;5.880;2023-12-14T08:55:36;5.66;118.99
66102;HTU21D;52883;51.094;5.880;2023-12-14T08:58:02;5.68;118.99
66102;HTU21D;52883;51.094;5.880;2023-12-14T09:00:27;5.68;118.99
66102;HTU21D;52883;51.094;5.880;2023-12-14T09:02:53;5.67;118.99
66102;HTU21D;52883;51.094;5.880;2023-12-14T09:05:19;5.68;118.99
66102;HTU21D;52883;51.094;5.880;2023-12-14T09:07:46;5.69;118.99
66102;HTU21D;52883;51.094;5.880;2023-12-14T09:10:12;5.67;118.99
66102;HTU21D;52883;51.094;5.880;2023-12-14T09:12:38;5.69;118.99
66102;HTU21D;52883;51.094;5.880;2023-12-14T09:15:04;5.74;118.99
66102;HTU21D;52883;51.094;5.880;2023-12-14T09:17:30;5.79;118.99
66102;HTU21D;52883;51.094;5.880;2023-12-14T09:20:02;5.87;118.99
66102;HTU21D;52883;51.094;5.880;2023-12-14T09:22:31;5.97;118.99
66102;HTU21D;52883;51.094;5.880;2023-12-14T09:24:56;6.02;118.99
66102;HTU21D;52883;51.094;5.880;2023-12-14T09:27:22;6.01;118.99
66102;HTU21D;52883;51.094;5.880;2023-12-14T09:29:48;6.02;118.99
66102;HTU21D;52883;51.094;5.880;2023-12-14T09:32:13;6.05;118.99
66102;HTU21D;52883;51.094;5.880;2023-12-14T09:34:39;6.10;118.99
66102;HTU21D;52883;51.094;5.880;2023-12-14T09:37:05;6.15;118.99
66102;HTU21D;52883;51.094;5.880;2023-12-14T09:39:30;6.19;118.99
66102;HTU21D;52883;51.094;5.880;2023-12-14T09:42:03;6.16;118.99
66102;HTU21D;52883;51.094;5.880;2023-12-14T09:44:33;6.13;118.99
66102;HTU21D;52883;51.094;5.880;2023-12-14T09:47:02;6.14;118.99
66102;HTU21D;52883;51.094;5.880;2023-12-14T09:49:30;6.17;118.99
66102;HTU21D;52883;51.094;5.880;2023-12-14T09:51:56;6.20;118.99
66102;HTU21D;52883;51.094;5.880;2023-12-14T09:54:22;6.17;118.99
66102;HTU21D;52883;51.094;5.880;2023-12-14T09:56:49;6.17;118.99
66102;HTU21D;52883;51.094;5.880;2023-12-14T09:59:15;6.22;118.99
66102;HTU21D;52883;51.094;5.880;2023-12-14T10:01:42;6.24;118.99
66102;HTU21D;52883;51.094;5.880;2023-12-14T10:04:12;6.20;118.99
66102;HTU21D;52883;51.094;5.880;2023-12-14T10:06:40;6.15;118.99
66102;HTU21D;52883;51.094;5.880;2023-12-14T10:09:06;6.15;118.99
66102;HTU21D;52883;51.094;5.880;2023-12-14T10:11:42;6.09;118.99
66102;HTU21D;52883;51.094;5.880;2023-12-14T10:14:19;6.06;118.99
66102;HTU21D;52883;51.094;5.880;2023-12-14T10:16:47;6.01;118.99
66102;HTU21D;52883;51.094;5.880;2023-12-14T10:19:13;5.98;118.99
66102;HTU21D;52883;51.094;5.880;2023-12-14T10:21:39;5.94;118.99
66102;HTU21D;52883;51.094;5.880;2023-12-14T10:24:05;5.96;118.99
66102;HTU21D;52883;51.094;5.880;2023-12-14T10:26:31;5.98;118.99
66102;HTU21D;52883;51.094;5.880;2023-12-14T10:28:58;5.98;118.99
66102;HTU21D;52883;51.094;5.880;2023-12-14T10:31:24;5.93;118.99
66102;HTU21D;52883;51.094;5.880;2023-12-14T10:33:51;5.90;118.99
66102;HTU21D;52883;51.094;5.880;2023-12-14T10:36:18;5.90;118.99
66102;HTU21D;52883;51.094;5.880;2023-12-14T10:38:48;5.91;118.99
66102;HTU21D;52883;51.094;5.880;2023-12-14T10:41:17;5.89;118.99
66102;HTU21D;52883;51.094;5.880;2023-12-14T10:43:43;5.82;118.99
66102;HTU21D;52883;51.094;5.880;2023-12-14T10:46:10;5.81;118.99
66102;HTU21D;52883;51.094;5.880;2023-12-14T10:48:36;5.83;118.99
66102;HTU21D;52883;51.094;5.880;2023-12-14T10:51:08;5.87;118.99
66102;HTU21D;52883;51.094;5.880;2023-12-14T10:53:35;5.89;118.99
66102;HTU21D;52883;51.094;5.880;2023-12-14T10:56:05;5.91;118.99
66102;HTU21D;52883;51.094;5.880;2023-12-14T10:58:52;5.91;118.99
66102;HTU21D;52883;51.094;5.880;2023-12-14T11:01:23;5.90;118.99
66102;HTU21D;52883;51.094;5.880;2023-12-14T11:03:53;5.96;118.99
66102;HTU21D;52883;51.094;5.880;2023-12-14T11:09:01;6.00;118.99
66102;HTU21D;52883;51.094;5.880;2023-12-14T11:12:00;6.06;118.99
66102;HTU21D;52883;51.094;5.880;2023-12-14T11:14:26;6.04;118.99
66102;HTU21D;52883;51.094;5.880;2023-12-14T11:17:06;6.01;118.99
66102;HTU21D;52883;51.094;5.880;2023-12-14T11:19:32;5.96;118.99
66102;HTU21D;52883;51.094;5.880;2023-12-14T11:22:25;5.94;118.99
66102;HTU21D;52883;51.094;5.880;2023-12-14T11:24:55;6.00;118.99
66102;HTU21D;52883;51.094;5.880;2023-12-14T11:27:30;6.10;118.99
66102;HTU21D;52883;51.094;5.880;2023-12-14T11:29:57;6.17;118.99
66102;HTU21D;52883;51.094;5.880;2023-12-14T11:32:24;6.27;118.99
66102;HTU21D;52883;51.094;5.880;2023-12-14T11:34:50;6.46;118.99
66102;HTU21D;52883;51.094;5.880;2023-12-14T11:37:15;6.63;118.99
66102;HTU21D;52883;51.094;5.880;2023-12-14T11:39:41;6.74;118.99
66102;HTU21D;52883;51.094;5.880;2023-12-14T11:42:08;6.89;118.99
66102;HTU21D;52883;51.094;5.880;2023-12-14T11:44:37;7.00;118.99
66102;HTU21D;52883;51.094;5.880;2023-12-14T11:47:03;6.95;118.99
66102;HTU21D;52883;51.094;5.880;2023-12-14T11:49:29;6.84;118.99
66102;HTU21D;52883;51.094;5.880;2023-12-14T11:51:55;6.82;118.99
66102;HTU21D;52883;51.094;5.880;2023-12-14T11:54:21;6.83;118.99
66102;HTU21D;52883;51.094;5.880;2023-12-14T11:56:50;6.79;118.99
66102;HTU21D;52883;51.094;5.880;2023-12-14T11:59:17;6.72;118.99
66102;HTU21D;52883;51.094;5.880;2023-12-14T12:01:59;6.70;118.99
66102;HTU21D;52883;51.094;5.880;2023-12-14T12:04:25;6.66;118.99
66102;HTU21D;52883;51.094;5.880;2023-12-14T12:07:02;6.58;118.99
66102;HTU21D;52883;51.094;5.880;2023-12-14T12:09:58;6.54;118.99
66102;HTU21D;52883;51.094;5.880;2023-12-14T12:12:24;6.57;118.99
66102;HTU21D;52883;51.094;5.880;2023-12-14T12:14:49;6.61;118.99
66102;HTU21D;52883;51.094;5.880;2023-12-14T12:17:18;6.61;118.99
66102;HTU21D;52883;51.094;5.880;2023-12-14T12:19:47;6.69;118.99
66102;HTU21D;52883;51.094;5.880;2023-12-14T12:22:12;6.74;118.99
66102;HTU21D;52883;51.094;5.880;2023-12-14T12:24:38;6.74;118.99
66102;HTU21D;52883;51.094;5.880;2023-12-14T12:27:04;6.68;118.99
66102;HTU21D;52883;51.094;5.880;2023-12-14T12:29:30;6.67;118.99
66102;HTU21D;52883;51.094;5.880;2023-12-14T12:31:56;6.66;118.99
66102;HTU21D;52883;51.094;5.880;2023-12-14T12:34:21;6.69;118.99
66102;HTU21D;52883;51.094;5.880;2023-12-14T12:36:47;6.68;118.99
66102;HTU21D;52883;51.094;5.880;2023-12-14T12:39:13;6.70;118.99
66102;HTU21D;52883;51.094;5.880;2023-12-14T12:41:39;6.71;118.99
66102;HTU21D;52883;51.094;5.880;2023-12-14T12:44:05;6.70;118.99
66102;HTU21D;52883;51.094;5.880;2023-12-14T12:46:32;6.73;118.99
66102;HTU21D;52883;51.094;5.880;2023-12-14T12:48:58;6.84;118.99
66102;HTU21D;52883;51.094;5.880;2023-12-14T12:51:24;6.94;118.99
66102;HTU21D;52883;51.094;5.880;2023-12-14T12:53:52;7.08;118.99
66102;HTU21D;52883;51.094;5.880;2023-12-14T12:56:17;7.18;118.99
66102;HTU21D;52883;51.094;5.880;2023-12-14T12:58:43;7.23;118.99
66102;HTU21D;52883;51.094;5.880;2023-12-14T13:01:08;7.20;118.99
66102;HTU21D;52883;51.094;5.880;2023-12-14T13:03:34;7.19;118.99
66102;HTU21D;52883;51.094;5.880;2023-12-14T13:06:00;7.25;118.99
66102;HTU21D;52883;51.094;5.880;2023-12-14T13:08:26;7.29;118.99
66102;HTU21D;52883;51.094;5.880;2023-12-14T13:10:51;7.31;118.99
66102;HTU21D;52883;51.094;5.880;2023-12-14T13:13:17;7.31;118.99
66102;HTU21D;52883;51.094;5.880;2023-12-14T13:15:43;7.31;118.99
66102;HTU21D;52883;51.094;5.880;2023-12-14T13:18:09;7.31;118.99
66102;HTU21D;52883;51.094;5.880;2023-12-14T13:20:35;7.23;118.99
66102;HTU21D;52883;51.094;5.880;2023-12-14T13:23:01;7.15;118.99
66102;HTU21D;52883;51.094;5.880;2023-12-14T13:25:27;7.05;118.99
66102;HTU21D;52883;51.094;5.880;2023-12-14T13:27:53;6.97;118.99
66102;HTU21D;52883;51.094;5.880;2023-12-14T13:30:19;6.90;118.99
66102;HTU21D;52883;51.094;5.880;2023-12-14T13:32:46;6.81;118.99
66102;HTU21D;52883;51.094;5.880;2023-12-14T13:35:12;6.72;118.99
66102;HTU21D;52883;51.094;5.880;2023-12-14T13:37:38;6.66;118.99
66102;HTU21D;52883;51.094;5.880;2023-12-14T13:40:03;6.56;118.99
66102;HTU21D;52883;51.094;5.880;2023-12-14T13:42:29;6.52;118.99
66102;HTU21D;52883;51.094;5.880;2023-12-14T13:44:55;6.46;118.99
66102;HTU21D;52883;51.094;5.880;2023-12-14T13:47:20;6.42;118.99
66102;HTU21D;52883;51.094;5.880;2023-12-14T13:49:46;6.37;118.99
66102;HTU21D;52883;51.094;5.880;2023-12-14T13:52:11;6.34;118.99
66102;HTU21D;52883;51.094;5.880;2023-12-14T13:54:37;6.31;118.99
66102;HTU21D;52883;51.094;5.880;2023-12-14T13:57:03;6.27;118.99
66102;HTU21D;52883;51.094;5.880;2023-12-14T13:59:28;6.20;118.99
66102;HTU21D;52883;51.094;5.880;2023-12-14T14:01:54;6.10;118.99
66102;HTU21D;52883;51.094;5.880;2023-12-14T14:04:20;6.00;118.99
66102;HTU21D;52883;51.094;5.880;2023-12-14T14:06:45;5.95;118.99
66102;HTU21D;52883;51.094;5.880;2023-12-14T14:09:11;5.94;118.99
66102;HTU21D;52883;51.094;5.880;2023-12-14T14:11:37;5.95;118.99
66102;HTU21D;52883;51.094;5.880;2023-12-14T14:14:03;5.97;118.99
66102;HTU21D;52883;51.094;5.880;2023-12-14T14:16:30;6.01;118.99
66102;HTU21D;52883;51.094;5.880;2023-12-14T14:18:56;6.01;118.99
66102;HTU21D;52883;51.094;5.880;2023-12-14T14:21:22;5.97;118.99
66102;HTU21D;52883;51.094;5.880;2023-12-14T14:23:47;5.96;118.99
66102;HTU21D;52883;51.094;5.880;2023-12-14T14:26:13;5.99;118.99
66102;HTU21D;52883;51.094;5.880;2023-12-14T14:28:38;6.02;118.99
66102;HTU21D;52883;51.094;5.880;2023-12-14T14:31:04;6.09;118.99
66102;HTU21D;52883;51.094;5.880;2023-12-14T14:33:29;6.10;118.99
66102;HTU21D;52883;51.094;5.880;2023-12-14T14:35:55;6.16;118.99
66102;HTU21D;52883;51.094;5.880;2023-12-14T14:38:21;6.20;118.99
66102;HTU21D;52883;51.094;5.880;2023-12-14T14:40:46;6.20;118.99
66102;HTU21D;52883;51.094;5.880;2023-12-14T14:43:12;6.21;118.99
66102;HTU21D;52883;51.094;5.880;2023-12-14T14:45:37;6.17;118.99
66102;HTU21D;52883;51.094;5.880;2023-12-14T14:48:05;6.13;118.99
66102;HTU21D;52883;51.094;5.880;2023-12-14T14:50:34;6.09;118.99
66102;HTU21D;52883;51.094;5.880;2023-12-14T14:53:00;6.08;118.99
66102;HTU21D;52883;51.094;5.880;2023-12-14T14:55:26;6.05;118.99
66102;HTU21D;52883;51.094;5.880;2023-12-14T14:57:52;6.01;118.99
66102;HTU21D;52883;51.094;5.880;2023-12-14T15:00:18;5.97;118.99
66102;HTU21D;52883;51.094;5.880;2023-12-14T15:02:44;5.93;118.99
66102;HTU21D;52883;51.094;5.880;2023-12-14T15:05:09;5.93;118.99
66102;HTU21D;52883;51.094;5.880;2023-12-14T15:07:36;5.87;118.99
66102;HTU21D;52883;51.094;5.880;2023-12-14T15:10:01;5.83;118.99
66102;HTU21D;52883;51.094;5.880;2023-12-14T15:12:28;5.83;118.99
66102;HTU21D;52883;51.094;5.880;2023-12-14T15:14:54;5.82;118.99
66102;HTU21D;52883;51.094;5.880;2023-12-14T15:17:21;5.77;118.99